Time;durP1;ratioP1;P1;durP2;ratioP2;P2;SDS_P1;SDS_P2;PMS_P1;PMS_P2;Temp;Humidity;BMP_temperature;BMP_pressure;BME280_temperature;BME280_humidity;BME280_pressure;Samples;Min_cycle;Max_cycle;Signal;HPM_P1;HPM_P2
2023/10/25 00:05:03;;;;;;;23.60;9.10;;;;;;;12.62;100.00;97409.45;272891;1269;22399;-85
2023/10/25 00:11:07;;;;;;;22.30;9.40;;;;;;;12.64;100.00;97396.52;272033;1266;22419;-85
2023/10/25 00:17:09;;;;;;;21.80;9.70;;;;;;;12.66;100.00;97388.82;272377;1267;23085;-84
2023/10/25 00:23:11;;;;;;;21.40;9.40;;;;;;;12.66;100.00;97385.52;272647;1267;22667;-84
2023/10/25 00:29:13;;;;;;;14.00;7.40;;;;;;;12.65;100.00;97375.27;272870;1267;22396;-85
2023/10/25 00:35:15;;;;;;;15.70;8.10;;;;;;;12.63;100.00;97369.41;273619;1267;23506;-85
2023/10/25 00:41:17;;;;;;;19.80;7.90;;;;;;;12.59;100.00;97355.86;273574;1267;22565;-85
2023/10/25 00:47:19;;;;;;;14.70;8.10;;;;;;;12.59;100.00;97353.43;273177;1268;22740;-85
2023/10/25 00:53:23;;;;;;;19.80;8.70;;;;;;;12.60;100.00;97345.65;272224;1267;22535;-85
2023/10/25 00:59:26;;;;;;;16.90;8.20;;;;;;;12.59;100.00;97341.05;272646;1266;22272;-84
2023/10/25 01:05:28;;;;;;;20.20;8.90;;;;;;;12.58;100.00;97331.09;273646;1269;22327;-85
2023/10/25 01:11:32;;;;;;;18.10;8.40;;;;;;;12.58;100.00;97319.10;273717;1271;22234;-84
2023/10/25 01:17:34;;;;;;;15.40;9.30;;;;;;;12.60;100.00;97309.11;273698;1267;22484;-84
2023/10/25 01:23:36;;;;;;;19.20;9.30;;;;;;;12.61;100.00;97297.41;273668;1269;22382;-84
2023/10/25 01:29:39;;;;;;;22.80;9.30;;;;;;;12.62;100.00;97288.36;271340;1266;23815;-86
2023/10/25 01:35:41;;;;;;;21.40;10.40;;;;;;;12.60;100.00;97284.95;271367;1268;22551;-85
2023/10/25 01:41:46;;;;;;;15.50;8.10;;;;;;;12.58;100.00;97283.02;271238;1269;26506;-85
2023/10/25 01:48:09;;;;;;;21.90;9.00;;;;;;;12.59;100.00;97282.30;272311;1267;22188;-85
2023/10/25 01:54:11;;;;;;;24.70;10.20;;;;;;;12.58;100.00;97280.84;273830;1269;22160;-85
2023/10/25 02:00:14;;;;;;;22.80;9.90;;;;;;;12.57;100.00;97281.10;273362;1267;22395;-85
2023/10/25 02:06:16;;;;;;;14.40;8.20;;;;;;;12.59;100.00;97276.90;273699;1267;23369;-85
2023/10/25 02:12:18;;;;;;;14.80;8.60;;;;;;;12.59;100.00;97271.33;273858;1272;22856;-85
2023/10/25 02:18:20;;;;;;;22.60;8.50;;;;;;;12.59;100.00;97269.36;273651;1269;22358;-85
2023/10/25 02:24:23;;;;;;;15.10;8.80;;;;;;;12.59;100.00;97266.14;273675;1267;23056;-85
2023/10/25 02:30:25;;;;;;;14.20;8.00;;;;;;;12.60;100.00;97266.13;273661;1269;23657;-84
2023/10/25 02:36:28;;;;;;;14.10;8.50;;;;;;;12.59;100.00;97267.70;272858;1269;23856;-84
2023/10/25 02:42:30;;;;;;;16.90;8.30;;;;;;;12.60;100.00;97261.66;271445;1267;23662;-84
2023/10/25 02:48:32;;;;;;;16.40;9.70;;;;;;;12.60;100.00;97261.41;272951;1269;22196;-85
2023/10/25 02:54:34;;;;;;;16.10;9.20;;;;;;;12.60;100.00;97260.15;273181;1272;22636;-85
2023/10/25 03:00:36;;;;;;;16.30;8.70;;;;;;;12.60;100.00;97257.81;272225;1269;22529;-85
2023/10/25 03:06:37;;;;;;;15.10;8.40;;;;;;;12.61;100.00;97254.89;270684;1269;23599;-84
2023/10/25 03:12:45;;;;;;;18.20;8.60;;;;;;;12.60;100.00;97253.17;271977;1270;22390;-84
2023/10/25 03:18:47;;;;;;;11.40;7.80;;;;;;;12.59;100.00;97255.09;273344;1269;22181;-84
2023/10/25 03:24:50;;;;;;;27.90;9.70;;;;;;;12.61;100.00;97258.48;271329;1269;22507;-84
2023/10/25 03:30:54;;;;;;;16.70;8.60;;;;;;;12.62;100.00;97255.73;271616;1269;23693;-85
2023/10/25 03:36:56;;;;;;;15.90;11.00;;;;;;;12.61;100.00;97255.14;271604;1269;22538;-84
2023/10/25 03:42:58;;;;;;;18.80;10.40;;;;;;;12.58;100.00;97252.60;271015;1254;22348;-87
2023/10/25 03:49:00;;;;;;;18.10;10.90;;;;;;;12.58;100.00;97247.42;271817;1269;23772;-86
2023/10/25 03:55:03;;;;;;;20.20;9.30;;;;;;;12.58;100.00;97250.17;272985;1266;23373;-85
2023/10/25 04:01:08;;;;;;;23.70;11.00;;;;;;;12.55;100.00;97253.16;271417;1267;22533;-84
2023/10/25 04:07:12;;;;;;;21.70;10.80;;;;;;;12.52;100.00;97260.36;271755;1267;23765;-85
2023/10/25 04:13:15;;;;;;;19.60;10.10;;;;;;;12.53;100.00;97259.48;272468;1267;24233;-84
2023/10/25 04:19:21;;;;;;;18.20;9.00;;;;;;;12.52;100.00;97267.98;273006;1270;22460;-85
2023/10/25 04:25:23;;;;;;;17.40;10.10;;;;;;;12.50;100.00;97274.60;273606;1267;22387;-84
2023/10/25 04:31:25;;;;;;;23.60;11.60;;;;;;;12.51;100.00;97277.55;271799;1267;23405;-83
2023/10/25 04:37:27;;;;;;;19.10;12.30;;;;;;;12.52;100.00;97276.36;273239;1267;22180;-85
2023/10/25 04:43:29;;;;;;;23.50;13.00;;;;;;;12.54;100.00;97278.52;273166;1267;23340;-84
2023/10/25 04:49:31;;;;;;;24.20;13.40;;;;;;;12.55;100.00;97276.04;273361;1267;22192;-84
2023/10/25 04:55:36;;;;;;;19.40;14.50;;;;;;;12.57;100.00;97284.48;273173;1267;22576;-84
2023/10/25 05:01:39;;;;;;;17.80;14.30;;;;;;;12.56;100.00;97291.15;272607;1267;22426;-84
2023/10/25 05:07:41;;;;;;;21.10;12.70;;;;;;;12.56;100.00;97296.00;273546;1267;22373;-83
2023/10/25 05:13:43;;;;;;;24.10;14.80;;;;;;;12.58;100.00;97300.77;273645;1257;22397;-84
2023/10/25 05:19:46;;;;;;;23.70;13.90;;;;;;;12.58;100.00;97308.29;273622;1267;22354;-83
2023/10/25 05:25:54;;;;;;;20.20;14.50;;;;;;;12.59;100.00;97316.75;273783;1267;22187;-83
2023/10/25 05:32:00;;;;;;;20.70;14.00;;;;;;;12.60;100.00;97330.67;273114;1267;22398;-83
2023/10/25 05:38:04;;;;;;;20.60;12.80;;;;;;;12.59;100.00;97343.71;273669;1267;22416;-84
2023/10/25 05:44:14;;;;;;;21.80;13.70;;;;;;;12.59;100.00;97352.42;273701;1267;22392;-82
2023/10/25 05:50:16;;;;;;;21.40;15.30;;;;;;;12.57;100.00;97363.36;273773;1267;22411;-83
2023/10/25 05:56:18;;;;;;;24.30;16.30;;;;;;;12.55;100.00;97371.73;271119;1263;1623114;-84
2023/10/25 06:02:30;;;;;;;22.90;17.10;;;;;;;12.51;100.00;97380.75;271577;1267;22494;-83
2023/10/25 06:08:40;;;;;;;29.30;19.10;;;;;;;12.48;100.00;97394.40;272584;1267;22546;-83
2023/10/25 06:14:42;;;;;;;27.30;18.80;;;;;;;12.45;100.00;97405.50;272003;1258;24666;-83
2023/10/25 06:20:45;;;;;;;33.20;19.90;;;;;;;12.43;100.00;97411.60;272532;1266;23522;-83
2023/10/25 06:26:47;;;;;;;29.20;20.50;;;;;;;12.39;100.00;97406.25;273139;1267;22546;-83
2023/10/25 06:32:54;;;;;;;28.90;20.70;;;;;;;12.38;100.00;97413.51;273097;1267;22537;-86
2023/10/25 06:38:56;;;;;;;31.90;20.50;;;;;;;12.35;100.00;97422.27;273001;1267;22184;-83
2023/10/25 06:45:01;;;;;;;31.00;20.00;;;;;;;12.32;100.00;97434.16;273838;1267;22187;-83
2023/10/25 06:51:07;;;;;;;31.70;19.50;;;;;;;12.30;100.00;97441.34;273721;1266;24136;-83
2023/10/25 06:57:10;;;;;;;34.80;19.10;;;;;;;12.29;100.00;97449.27;273754;1260;22307;-84
2023/10/25 07:03:13;;;;;;;29.80;19.00;;;;;;;12.28;100.00;97449.68;273528;1267;22164;-85
2023/10/25 07:09:15;;;;;;;28.60;17.60;;;;;;;12.26;100.00;97460.31;272806;1267;22330;-84
2023/10/25 07:15:23;;;;;;;25.20;17.70;;;;;;;12.23;100.00;97471.58;271282;1267;23235;-83
2023/10/25 07:21:34;;;;;;;28.60;19.50;;;;;;;12.21;100.00;97475.54;271977;1265;22667;-83
2023/10/25 07:27:46;;;;;;;31.00;18.90;;;;;;;12.22;100.00;97472.55;272082;1267;23752;-84
2023/10/25 07:33:48;;;;;;;28.70;19.40;;;;;;;12.21;100.00;97481.90;271563;1267;22536;-84
2023/10/25 07:39:49;;;;;;;27.60;18.20;;;;;;;12.18;100.00;97491.13;272496;1267;22521;-84
2023/10/25 07:45:51;;;;;;;26.70;17.90;;;;;;;12.14;100.00;97491.52;272087;1267;22533;-84
2023/10/25 07:51:58;;;;;;;30.50;17.90;;;;;;;12.07;100.00;97491.80;272518;1267;22178;-84
2023/10/25 07:58:00;;;;;;;26.70;17.80;;;;;;;12.03;100.00;97496.25;273977;1270;22185;-84
2023/10/25 08:04:01;;;;;;;31.00;17.30;;;;;;;12.01;100.00;97496.69;273445;1267;23089;-85
2023/10/25 08:10:06;;;;;;;24.20;16.60;;;;;;;11.99;100.00;97496.80;273839;1269;22189;-85
2023/10/25 08:16:08;;;;;;;27.60;18.20;;;;;;;11.98;100.00;97500.67;273702;1266;22553;-85
2023/10/25 08:22:11;;;;;;;33.50;21.50;;;;;;;11.98;100.00;97507.71;272548;1267;24030;-85
2023/10/25 08:28:14;;;;;;;27.40;18.10;;;;;;;11.96;100.00;97515.83;272280;1266;22651;-84
2023/10/25 08:34:17;;;;;;;30.40;18.90;;;;;;;11.92;100.00;97522.32;272207;1266;22625;-84
2023/10/25 08:40:18;;;;;;;25.00;16.60;;;;;;;11.89;100.00;97525.11;273673;1267;22350;-85
2023/10/25 08:46:42;;;;;;;26.80;18.00;;;;;;;11.86;100.00;97532.14;273250;1267;22380;-85
2023/10/25 08:52:44;;;;;;;28.20;16.80;;;;;;;11.85;100.00;97536.46;273524;1267;22275;-85
2023/10/25 08:58:46;;;;;;;22.20;15.50;;;;;;;11.87;100.00;97541.84;273410;1267;22561;-83
2023/10/25 09:05:02;;;;;;;22.00;15.20;;;;;;;11.89;100.00;97542.59;272824;1267;22535;-84
2023/10/25 09:11:08;;;;;;;22.10;14.50;;;;;;;11.90;100.00;97542.09;272765;1267;22371;-85
2023/10/25 09:17:10;;;;;;;20.60;14.40;;;;;;;11.90;100.00;97542.33;273763;1269;22385;-85
2023/10/25 09:23:12;;;;;;;19.60;14.40;;;;;;;11.93;100.00;97548.23;273451;1267;22495;-84
2023/10/25 09:29:36;;;;;;;21.60;13.90;;;;;;;11.96;100.00;97548.73;272048;1267;22730;-84
2023/10/25 09:35:38;;;;;;;17.60;12.40;;;;;;;11.99;100.00;97561.30;273424;1267;23492;-84
2023/10/25 09:41:39;;;;;;;16.40;11.60;;;;;;;12.02;100.00;97566.97;271582;1266;22540;-85
2023/10/25 09:47:47;;;;;;;15.90;11.50;;;;;;;12.05;100.00;97572.02;272972;1267;22325;-83
2023/10/25 09:54:09;;;;;;;14.40;10.50;;;;;;;12.07;100.00;97571.81;273158;1267;22180;-83
2023/10/25 10:00:11;;;;;;;22.00;11.00;;;;;;;12.10;100.00;97573.41;272709;1267;22403;-84
2023/10/25 10:06:40;;;;;;;12.00;9.20;;;;;;;12.14;100.00;97567.92;273059;1267;22949;-84
2023/10/25 10:12:42;;;;;;;14.30;8.60;;;;;;;12.18;100.00;97566.05;272579;1260;23015;-83
2023/10/25 10:18:47;;;;;;;13.00;8.60;;;;;;;12.23;100.00;97570.98;272828;1266;22571;-82
2023/10/25 10:24:56;;;;;;;9.90;8.50;;;;;;;12.24;100.00;97573.07;272006;1267;22434;-83
2023/10/25 10:31:00;;;;;;;14.70;7.50;;;;;;;12.26;100.00;97573.27;273247;1267;23206;-83
2023/10/25 10:37:07;;;;;;;9.80;6.70;;;;;;;12.29;100.00;97573.30;272005;1261;23088;-83
2023/10/25 10:43:20;;;;;;;10.90;5.10;;;;;;;12.35;100.00;97576.64;273042;1267;22435;-84
2023/10/25 10:49:43;;;;;;;9.60;5.60;;;;;;;12.42;100.00;97575.41;273879;1269;22386;-84
2023/10/25 10:55:45;;;;;;;8.40;4.50;;;;;;;12.48;100.00;97579.21;272182;1267;22623;-84
2023/10/25 11:02:28;;;;;;;7.10;4.20;;;;;;;12.48;100.00;97585.40;271208;1267;22587;-83
2023/10/25 11:08:33;;;;;;;7.50;4.30;;;;;;;12.48;100.00;97589.64;272815;1267;22535;-84
2023/10/25 11:15:18;;;;;;;8.00;4.40;;;;;;;12.50;100.00;97592.97;273093;1266;22586;-83
2023/10/25 11:21:44;;;;;;;7.30;4.00;;;;;;;12.55;100.00;97599.15;273793;1266;22352;-83
2023/10/25 11:27:47;;;;;;;6.60;4.00;;;;;;;12.60;100.00;97600.73;273527;1266;23523;-83
2023/10/25 11:33:49;;;;;;;7.30;3.40;;;;;;;12.62;100.00;97604.73;272809;1265;23068;-84
2023/10/25 11:40:01;;;;;;;5.10;3.60;;;;;;;12.62;100.00;97612.60;272996;1267;22541;-84
2023/10/25 11:46:03;;;;;;;6.10;4.50;;;;;;;12.61;100.00;97616.39;271978;1267;22447;-84
2023/10/25 11:52:07;;;;;;;8.10;4.50;;;;;;;12.60;100.00;97627.06;271790;1267;22671;-83
2023/10/25 11:58:12;;;;;;;7.70;4.50;;;;;;;12.60;100.00;97631.31;273282;1267;23611;-84
2023/10/25 12:04:14;;;;;;;6.20;4.50;;;;;;;12.59;100.00;97637.03;271886;1267;24422;-83
2023/10/25 12:10:17;;;;;;;9.30;6.20;;;;;;;12.61;100.00;97636.85;271583;1267;22677;-84
2023/10/25 12:16:19;;;;;;;7.50;5.60;;;;;;;12.62;100.00;97637.30;272059;1267;22350;-83
2023/10/25 12:22:20;;;;;;;8.40;4.40;;;;;;;12.62;100.00;97631.81;273667;1260;22468;-84
2023/10/25 12:28:23;;;;;;;5.20;4.10;;;;;;;12.64;100.00;97628.88;273671;1266;23593;-84
2023/10/25 12:34:25;;;;;;;8.80;4.10;;;;;;;12.67;100.00;97627.33;273577;1266;23641;-84
2023/10/25 12:40:28;;;;;;;5.30;3.50;;;;;;;12.69;100.00;97620.70;270486;1267;24246;-86
2023/10/25 12:46:29;;;;;;;7.60;3.60;;;;;;;12.73;100.00;97620.15;271458;1267;23272;-83
2023/10/25 12:52:31;;;;;;;10.90;4.50;;;;;;;12.75;100.00;97623.95;272067;1267;22528;-84
2023/10/25 12:58:33;;;;;;;7.60;3.70;;;;;;;12.77;100.00;97623.92;271402;1266;22651;-83
2023/10/25 13:04:35;;;;;;;4.80;3.20;;;;;;;12.76;100.00;97629.59;273582;1267;22271;-83
2023/10/25 13:10:37;;;;;;;7.30;4.20;;;;;;;12.79;100.00;97631.88;272568;1267;22544;-84
2023/10/25 13:16:39;;;;;;;5.50;3.50;;;;;;;12.86;100.00;97636.45;271376;1266;22492;-84
2023/10/25 13:22:41;;;;;;;7.90;4.30;;;;;;;12.96;100.00;97630.45;271117;1267;22612;-83
2023/10/25 13:28:43;;;;;;;7.20;3.60;;;;;;;13.09;100.00;97621.10;271299;1267;22555;-84
2023/10/25 13:34:45;;;;;;;7.10;4.20;;;;;;;13.12;100.00;97620.88;273362;1269;22217;-83
2023/10/25 13:40:48;;;;;;;4.70;3.10;;;;;;;13.10;100.00;97623.98;272397;1267;22577;-84
2023/10/25 13:46:50;;;;;;;7.50;4.00;;;;;;;13.06;100.00;97625.40;271115;1267;22725;-83
2023/10/25 13:52:52;;;;;;;7.00;3.90;;;;;;;12.99;100.00;97631.41;271548;1266;22415;-85
2023/10/25 13:58:55;;;;;;;13.10;4.80;;;;;;;12.93;100.00;97632.15;271605;1267;22543;-83
2023/10/25 14:05:06;;;;;;;7.00;3.20;;;;;;;12.84;100.00;97631.79;272363;1267;22560;-83
2023/10/25 14:11:13;;;;;;;5.90;3.50;;;;;;;12.79;100.00;97628.83;272574;1267;22549;-83
2023/10/25 14:17:15;;;;;;;8.30;4.00;;;;;;;12.76;100.00;97631.85;272540;1267;22188;-83
2023/10/25 14:23:18;;;;;;;9.70;4.00;;;;;;;12.78;100.00;97630.18;272362;1267;22558;-83
2023/10/25 14:29:21;;;;;;;13.00;4.10;;;;;;;12.81;100.00;97633.31;272412;1267;22557;-82
2023/10/25 14:35:24;;;;;;;12.70;3.90;;;;;;;12.83;100.00;97635.09;273042;1266;22491;-81
2023/10/25 14:41:27;;;;;;;11.10;4.00;;;;;;;12.84;100.00;97630.84;273743;1267;22516;-82
2023/10/25 14:47:30;;;;;;;5.80;3.50;;;;;;;12.84;100.00;97639.88;271103;1266;22518;-84
2023/10/25 14:53:32;;;;;;;6.50;4.00;;;;;;;12.83;100.00;97639.89;273486;1267;22413;-83
2023/10/25 14:59:34;;;;;;;6.30;4.70;;;;;;;12.83;100.00;97634.48;273116;1268;22541;-83
2023/10/25 15:05:37;;;;;;;8.80;4.70;;;;;;;12.79;100.00;97625.67;271293;1267;22652;-82
2023/10/25 15:11:39;;;;;;;9.30;5.80;;;;;;;12.75;100.00;97614.54;271233;1267;22559;-84
2023/10/25 15:17:45;;;;;;;11.50;7.10;;;;;;;12.69;100.00;97602.34;271308;1256;22645;-83
2023/10/25 15:23:47;;;;;;;14.40;6.20;;;;;;;12.63;100.00;97598.91;271121;1257;22684;-83
2023/10/25 15:29:50;;;;;;;6.50;5.00;;;;;;;12.56;100.00;97591.84;272968;1267;22248;-84
2023/10/25 15:35:58;;;;;;;8.10;5.30;;;;;;;12.41;100.00;97579.27;273822;1267;22381;-83
2023/10/25 15:41:59;;;;;;;14.40;6.60;;;;;;;12.29;100.00;97573.53;273751;1267;22418;-83
2023/10/25 15:48:02;;;;;;;14.10;7.90;;;;;;;12.03;100.00;97577.45;271023;1266;25577;-82
2023/10/25 15:54:08;;;;;;;12.60;8.30;;;;;;;11.86;100.00;97576.02;273284;1269;22217;-84
2023/10/25 16:00:11;;;;;;;;;;;;;;;11.74;100.00;97586.70;272316;1267;23574;-83
2023/10/25 16:06:13;;;;;;;14.50;8.30;;;;;;;11.71;100.00;97588.55;271176;1267;23169;-83
2023/10/25 16:12:15;;;;;;;14.90;8.80;;;;;;;11.76;100.00;97591.75;263736;1267;10001502;-83
2023/10/25 16:18:18;;;;;;;12.50;8.40;;;;;;;11.73;100.00;97590.48;271114;1267;22564;-84
2023/10/25 16:24:20;;;;;;;14.00;9.50;;;;;;;11.66;100.00;97597.16;271215;1267;24247;-83
2023/10/25 16:30:22;;;;;;;13.60;8.70;;;;;;;11.61;100.00;97603.02;271466;1267;23617;-84
2023/10/25 16:36:25;;;;;;;15.90;10.60;;;;;;;11.58;100.00;97604.55;272794;1267;22290;-84
2023/10/25 16:42:27;;;;;;;14.50;8.90;;;;;;;11.54;100.00;97604.77;272128;1267;23697;-83
2023/10/25 16:48:29;;;;;;;14.40;7.60;;;;;;;11.45;100.00;97602.94;273648;1269;22725;-83
2023/10/25 16:54:36;;;;;;;13.40;9.30;;;;;;;11.29;100.00;97599.55;273859;1267;23081;-83
2023/10/25 17:00:38;;;;;;;24.70;13.20;;;;;;;11.15;100.00;97601.88;272333;1267;22527;-83
2023/10/25 17:06:48;;;;;;;22.60;15.30;;;;;;;10.94;100.00;97596.41;273783;1267;22185;-83
2023/10/25 17:12:50;;;;;;;28.60;16.70;;;;;;;10.79;100.00;97592.30;272510;1267;22336;-83
2023/10/25 17:19:00;;;;;;;24.90;14.80;;;;;;;10.64;100.00;97590.92;271342;1267;22542;-83
2023/10/25 17:25:02;;;;;;;20.50;13.20;;;;;;;10.41;100.00;97576.41;272173;1267;22570;-83
2023/10/25 17:31:05;;;;;;;24.30;15.00;;;;;;;10.18;100.00;97568.30;271363;1267;22852;-85
2023/10/25 17:37:08;;;;;;;34.80;19.30;;;;;;;10.03;100.00;97563.41;271196;1264;22591;-83
2023/10/25 17:43:11;;;;;;;27.90;16.10;;;;;;;9.88;100.00;97550.44;271836;1268;22411;-83
2023/10/25 17:49:13;;;;;;;38.60;22.50;;;;;;;9.72;100.00;97544.48;271558;1267;22647;-85
2023/10/25 17:55:19;;;;;;;56.20;32.40;;;;;;;9.55;100.00;97538.70;271484;1269;22422;-84
2023/10/25 18:01:21;;;;;;;49.90;29.70;;;;;;;9.40;100.00;97533.51;272328;1267;1794685;-84
2023/10/25 18:07:24;;;;;;;41.50;25.50;;;;;;;9.31;100.00;97521.40;273645;1267;22440;-84
2023/10/25 18:13:26;;;;;;;40.70;24.40;;;;;;;9.24;100.00;97512.56;273576;1269;23526;-84
2023/10/25 18:19:29;;;;;;;35.30;21.70;;;;;;;9.20;100.00;97512.74;273617;1260;22222;-84
2023/10/25 18:25:32;;;;;;;39.10;21.40;;;;;;;9.03;100.00;97506.92;272689;1267;22529;-84
2023/10/25 18:31:44;;;;;;;33.70;20.30;;;;;;;8.87;100.00;97503.45;272693;1267;22497;-85
2023/10/25 18:37:46;;;;;;;38.00;24.30;;;;;;;8.74;100.00;97505.54;272404;1269;22564;-84
2023/10/25 18:43:48;;;;;;;38.80;24.00;;;;;;;8.66;100.00;97509.40;272015;1269;22208;-84
2023/10/25 18:49:50;;;;;;;35.30;22.10;;;;;;;8.54;100.00;97513.60;272285;1268;24178;-84
2023/10/25 18:55:59;;;;;;;37.80;21.10;;;;;;;8.38;100.00;97513.59;272138;1268;22643;-85
2023/10/25 19:02:05;;;;;;;44.60;25.60;;;;;;;8.25;100.00;97514.70;271552;1269;22188;-84
2023/10/25 19:08:08;;;;;;;50.40;30.60;;;;;;;8.17;100.00;97514.80;273238;1267;22417;-84
2023/10/25 19:14:10;;;;;;;40.40;25.40;;;;;;;8.05;100.00;97510.95;273682;1257;22579;-84
2023/10/25 19:20:29;;;;;;;59.90;35.00;;;;;;;7.94;100.00;97508.17;273723;1269;22389;-84
2023/10/25 19:26:33;;;;;;;40.80;22.80;;;;;;;7.80;100.00;97510.28;273686;1269;23013;-85
2023/10/25 19:32:39;;;;;;;33.70;21.70;;;;;;;7.70;100.00;97525.33;273865;1273;23397;-84
2023/10/25 19:38:42;;;;;;;52.10;31.30;;;;;;;7.60;100.00;97523.63;272230;1256;22544;-85
2023/10/25 19:44:47;;;;;;;51.20;30.20;;;;;;;7.48;100.00;97522.70;271631;1267;22546;-84
2023/10/25 19:51:04;;;;;;;49.20;30.50;;;;;;;7.47;100.00;97514.14;272934;1266;22443;-84
2023/10/25 19:57:08;;;;;;;42.60;27.20;;;;;;;7.44;100.00;97507.75;273449;1267;22637;-84
2023/10/25 20:03:25;;;;;;;35.20;22.40;;;;;;;7.34;100.00;97500.99;273586;1267;22180;-83
2023/10/25 20:09:27;;;;;;;36.60;21.80;;;;;;;7.17;100.00;97498.03;273754;1269;22373;-85
2023/10/25 20:15:29;;;;;;;36.80;23.80;;;;;;;7.05;100.00;97499.35;273556;1267;22920;-84
2023/10/25 20:21:41;;;;;;;37.90;24.80;;;;;;;6.96;100.00;97499.03;273786;1267;22372;-84
2023/10/25 20:27:45;;;;;;;33.80;19.20;;;;;;;6.99;100.00;97496.70;273750;1264;23682;-84
2023/10/25 20:34:10;;;;;;;43.50;24.40;;;;;;;6.86;100.00;97493.73;273194;1270;22380;-84
2023/10/25 20:40:13;;;;;;;38.10;26.40;;;;;;;6.68;100.00;97497.74;273985;1269;22178;-84
2023/10/25 20:46:17;;;;;;;70.90;39.60;;;;;;;6.59;100.00;97505.71;273523;1270;23315;-84
2023/10/25 20:52:18;;;;;;;48.90;28.60;;;;;;;6.55;100.00;97509.03;273648;1267;22406;-84
2023/10/25 20:58:20;;;;;;;44.20;26.10;;;;;;;6.44;100.00;97497.73;273618;1267;22373;-84
2023/10/25 21:04:25;;;;;;;51.20;30.90;;;;;;;6.43;100.00;97498.59;273629;1267;22440;-84
2023/10/25 21:10:27;;;;;;;50.00;31.30;;;;;;;6.42;100.00;97494.33;273606;1267;22402;-84
2023/10/25 21:16:29;;;;;;;71.00;33.40;;;;;;;6.39;100.00;97489.57;273137;1267;22527;-84
2023/10/25 21:22:31;;;;;;;137.30;38.60;;;;;;;6.32;100.00;97487.75;273435;1263;22349;-85
2023/10/25 21:28:54;;;;;;;62.40;26.10;;;;;;;6.18;100.00;97485.60;274032;1274;22170;-83
2023/10/25 21:34:56;;;;;;;53.10;30.70;;;;;;;6.21;100.00;97479.80;273584;1267;22390;-83
2023/10/25 21:41:03;;;;;;;49.10;32.60;;;;;;;6.27;100.00;97483.06;273703;1267;23085;-82
2023/10/25 21:47:06;;;;;;;65.70;39.10;;;;;;;6.24;100.00;97481.90;273839;1267;22269;-83
2023/10/25 21:53:08;;;;;;;58.10;35.20;;;;;;;6.14;100.00;97476.35;273726;1267;22466;-84
2023/10/25 21:59:22;;;;;;;52.50;31.90;;;;;;;5.99;100.00;97475.35;272049;1267;22516;-85
2023/10/25 22:05:24;;;;;;;48.50;30.00;;;;;;;5.93;100.00;97461.73;271806;1267;22676;-84
2023/10/25 22:11:29;;;;;;;48.40;29.70;;;;;;;5.89;100.00;97456.44;273686;1267;22345;-84
2023/10/25 22:17:48;;;;;;;56.00;34.40;;;;;;;5.77;100.00;97448.76;273673;1267;22406;-84
2023/10/25 22:23:51;;;;;;;53.70;34.70;;;;;;;5.70;100.00;97439.33;273581;1267;22556;-84
2023/10/25 22:29:55;;;;;;;50.30;30.30;;;;;;;5.65;100.00;97434.96;271441;1267;23195;-84
2023/10/25 22:36:01;;;;;;;50.10;32.60;;;;;;;5.59;100.00;97434.29;271664;1267;22603;-84
2023/10/25 22:42:09;;;;;;;50.00;31.70;;;;;;;5.44;100.00;97434.84;272384;1267;25358;-84
2023/10/25 22:48:11;;;;;;;51.90;31.50;;;;;;;5.43;100.00;97436.84;271569;1267;23703;-85
2023/10/25 22:54:25;;;;;;;70.30;34.90;;;;;;;5.35;100.00;97432.52;271489;1267;22542;-83
2023/10/25 23:00:28;;;;;;;76.70;36.80;;;;;;;5.28;100.00;97424.42;273099;1267;22456;-85
2023/10/25 23:06:33;;;;;;;68.40;32.30;;;;;;;5.28;100.00;97403.72;273637;1267;22398;-86
2023/10/25 23:12:52;;;;;;;61.50;32.50;;;;;;;5.21;100.00;97392.52;273385;1266;22303;-85
2023/10/25 23:18:57;;;;;;;57.30;30.70;;;;;;;5.18;100.00;97380.09;273682;1267;22379;-85
2023/10/25 23:25:00;;;;;;;33.50;19.90;;;;;;;5.13;100.00;97368.44;273861;1267;22303;-85
2023/10/25 23:31:24;;;;;;;61.00;30.40;;;;;;;5.10;100.00;97365.31;273836;1266;22191;-84
2023/10/25 23:37:26;;;;;;;59.70;32.40;;;;;;;5.07;100.00;97366.54;272543;1266;22712;-85
2023/10/25 23:43:29;;;;;;;73.40;35.40;;;;;;;5.02;100.00;97364.25;272142;1267;22381;-85
2023/10/25 23:49:30;;;;;;;68.70;33.40;;;;;;;5.05;100.00;97363.42;273472;1266;23346;-85
2023/10/25 23:55:32;;;;;;;61.50;33.60;;;;;;;5.17;100.00;97360.55;272527;1267;22545;-85
